Time;durP1;ratioP1;P1;durP2;ratioP2;P2;SDS_P1;SDS_P2;PMS_P1;PMS_P2;Temp;Humidity;BMP_temperature;BMP_pressure;BME280_temperature;BME280_humidity;BME280_pressure;Samples;Min_cycle;Max_cycle;Signal;HPM_P1;HPM_P2
2021/12/17 00:00:09;;;;;;;31.17;13.02;;;;;;;5.83;100.00;102914.66;6042453;29;20060;-91
2021/12/17 00:03:43;;;;;;;28.70;13.20;;;;;;;5.82;100.00;102903.56;6047537;29;20045;-91
2021/12/17 00:06:47;;;;;;;32.38;13.70;;;;;;;5.77;100.00;102904.53;6055512;29;20060;-91
2021/12/17 00:09:50;;;;;;;34.13;13.82;;;;;;;5.81;100.00;102907.00;6037415;29;20135;-91
2021/12/17 00:12:52;;;;;;;32.10;14.23;;;;;;;5.88;100.00;102915.41;6046298;29;20205;-91
2021/12/17 00:15:55;;;;;;;39.63;16.85;;;;;;;5.99;100.00;102910.09;6034015;29;20096;-91
2021/12/17 00:49:06;;;;;;;33.55;14.95;;;;;;;6.28;100.00;102912.03;6070121;29;20550;-91
2021/12/17 00:52:11;;;;;;;31.98;13.73;;;;;;;6.29;100.00;102903.44;6057159;29;20052;-91
2021/12/17 00:55:13;;;;;;;31.00;13.80;;;;;;;6.30;100.00;102910.25;6057865;29;20164;-91
2021/12/17 00:58:22;;;;;;;32.95;14.25;;;;;;;6.40;100.00;102927.19;6041926;29;20052;-91
2021/12/17 01:01:25;;;;;;;27.00;13.48;;;;;;;6.40;100.00;102918.63;6058147;29;20497;-91
2021/12/17 01:04:27;;;;;;;30.70;13.82;;;;;;;6.34;100.00;102909.31;6060396;29;20052;-91
2021/12/17 01:07:33;;;;;;;31.35;14.10;;;;;;;6.27;100.00;102906.94;6062124;29;20085;-91
2021/12/17 01:10:56;;;;;;;30.35;14.85;;;;;;;6.19;100.00;102905.38;6046751;29;20051;-91
2021/12/17 01:14:05;;;;;;;31.15;14.00;;;;;;;6.16;100.00;102912.28;6080081;29;20045;-91
2021/12/17 01:17:27;;;;;;;28.98;14.05;;;;;;;6.17;100.00;102912.25;6078214;29;20065;-91
2021/12/17 01:24:31;;;;;;;39.45;14.48;;;;;;;6.45;100.00;102916.78;6059856;29;20056;-91
2021/12/17 01:44:59;;;;;;;29.35;13.00;;;;;;;6.69;100.00;102925.66;6080987;29;20095;-91
2021/12/17 01:48:07;;;;;;;28.00;12.35;;;;;;;6.83;100.00;102943.34;6060330;29;20064;-91
2021/12/17 02:01:25;;;;;;;29.42;12.93;;;;;;;6.69;100.00;102943.69;6058589;29;20053;-91
2021/12/17 02:04:29;;;;;;;21.55;11.05;;;;;;;6.77;100.00;102946.91;6062291;29;20063;-91
2021/12/17 02:07:31;;;;;;;28.75;12.73;;;;;;;6.77;100.00;102930.63;6060599;29;20589;-91
2021/12/17 02:31:23;;;;;;;30.77;13.63;;;;;;;6.83;100.00;102927.88;6076743;29;20044;-91
2021/12/17 02:37:31;;;;;;;28.02;12.52;;;;;;;7.09;100.00;102932.41;6059578;29;20099;-91
2021/12/17 02:48:15;;;;;;;24.25;11.32;;;;;;;7.35;100.00;102939.44;6076439;29;20036;-91
2021/12/17 02:51:17;;;;;;;21.67;10.45;;;;;;;7.23;100.00;102929.44;6060735;29;20053;-92
2021/12/17 02:54:19;;;;;;;21.45;9.98;;;;;;;7.13;100.00;102918.56;6060095;29;20040;-91
2021/12/17 02:57:21;;;;;;;24.33;10.90;;;;;;;7.10;100.00;102916.06;6073753;29;20041;-91
2021/12/17 03:00:23;;;;;;;23.98;10.68;;;;;;;7.19;100.00;102918.41;6058052;29;20052;-91
2021/12/17 03:03:30;;;;;;;24.40;11.35;;;;;;;7.12;100.00;102917.69;6059552;29;20053;-91
2021/12/17 03:06:32;;;;;;;23.52;11.82;;;;;;;7.18;100.00;102905.53;6059623;29;20053;-91
2021/12/17 03:13:00;;;;;;;22.42;10.60;;;;;;;7.18;100.00;102902.97;6071325;29;20052;-91
2021/12/17 03:19:11;;;;;;;23.10;11.63;;;;;;;7.08;100.00;102907.50;6072724;29;20036;-91
2021/12/17 03:25:39;;;;;;;29.05;12.75;;;;;;;7.15;100.00;102905.63;6046716;29;20060;-91
2021/12/17 03:28:47;;;;;;;27.05;11.98;;;;;;;7.07;100.00;102898.13;6058668;29;20045;-91
2021/12/17 03:31:51;;;;;;;28.10;13.25;;;;;;;7.07;100.00;102898.13;6058075;29;20048;-91
2021/12/17 03:34:53;;;;;;;28.02;13.82;;;;;;;7.06;100.00;102911.88;6075329;29;20049;-91
2021/12/17 03:37:55;;;;;;;27.08;12.73;;;;;;;7.01;100.00;102911.16;6057626;29;20057;-91
2021/12/17 03:41:10;;;;;;;25.02;12.05;;;;;;;6.87;100.00;102902.03;6043600;29;20109;-91
2021/12/17 03:44:20;;;;;;;25.20;12.95;;;;;;;6.96;100.00;102900.97;6053350;29;20399;-91
2021/12/17 03:47:41;;;;;;;31.75;13.30;;;;;;;6.81;100.00;102907.34;6055414;29;20052;-91
2021/12/17 03:50:50;;;;;;;30.77;14.23;;;;;;;6.73;100.00;102911.81;6054851;29;20053;-91
2021/12/17 03:53:55;;;;;;;30.08;13.50;;;;;;;6.71;100.00;102915.31;6052159;29;20095;-91
2021/12/17 03:56:58;;;;;;;31.58;13.57;;;;;;;6.65;100.00;102904.28;6057872;29;20048;-91
2021/12/17 04:00:00;;;;;;;27.35;12.20;;;;;;;6.56;100.00;102904.53;6055956;29;20135;-91
2021/12/17 04:03:17;;;;;;;27.95;12.65;;;;;;;6.51;100.00;102908.94;6057004;29;20059;-90
2021/12/17 04:06:24;;;;;;;28.85;12.93;;;;;;;6.49;100.00;102907.28;6073991;29;20033;-90
2021/12/17 04:09:38;;;;;;;31.35;13.10;;;;;;;6.48;100.00;102898.69;6074471;29;20749;-90
2021/12/17 04:13:24;;;;;;;29.95;12.90;;;;;;;6.49;100.00;102908.13;6074951;29;20044;-90
2021/12/17 04:16:32;;;;;;;32.35;14.00;;;;;;;6.49;100.00;102902.16;6073135;29;20040;-90
2021/12/17 04:19:35;;;;;;;31.20;13.30;;;;;;;6.50;100.00;102903.81;6057462;29;20414;-90
2021/12/17 04:22:50;;;;;;;29.73;12.48;;;;;;;6.54;100.00;102903.72;6078012;29;20048;-90
2021/12/17 04:25:52;;;;;;;27.33;12.68;;;;;;;6.49;100.00;102895.25;6057244;29;20059;-90
2021/12/17 04:28:55;;;;;;;32.45;13.63;;;;;;;6.51;100.00;102906.38;6074764;29;20048;-90
2021/12/17 04:32:00;;;;;;;28.55;12.98;;;;;;;6.49;100.00;102900.41;6057106;29;20044;-90
2021/12/17 04:35:07;;;;;;;29.40;13.18;;;;;;;6.52;100.00;102894.34;6057642;29;20060;-90
2021/12/17 04:38:25;;;;;;;30.65;13.18;;;;;;;6.51;100.00;102887.50;6043074;29;20131;-90
2021/12/17 04:44:54;;;;;;;32.15;14.05;;;;;;;6.48;100.00;102893.56;6075881;29;20058;-90
2021/12/17 04:58:09;;;;;;;39.05;15.10;;;;;;;6.45;100.00;102909.06;6043440;29;20077;-90
2021/12/17 05:01:14;;;;;;;42.08;15.30;;;;;;;6.51;100.00;102908.94;6057345;29;20099;-90
2021/12/17 05:04:20;;;;;;;34.47;14.65;;;;;;;6.63;100.00;102915.50;6054766;29;20067;-90
2021/12/17 05:07:25;;;;;;;37.97;14.73;;;;;;;6.60;100.00;102910.44;6038798;29;20590;-90
2021/12/17 05:10:54;;;;;;;30.73;12.63;;;;;;;6.58;100.00;102907.88;6058951;29;20045;-90
2021/12/17 05:20:45;;;;;;;27.13;12.70;;;;;;;6.53;100.00;102899.44;6073733;29;20120;-90
2021/12/17 05:23:51;;;;;;;28.95;12.00;;;;;;;6.54;100.00;102892.59;6057890;29;20047;-90
2021/12/17 05:26:55;;;;;;;26.67;12.00;;;;;;;6.68;100.00;102914.53;6072989;29;20142;-90
2021/12/17 05:30:00;;;;;;;24.20;11.38;;;;;;;6.66;100.00;102918.03;6058226;29;20069;-91
2021/12/17 05:33:05;;;;;;;25.08;11.70;;;;;;;6.68;100.00;102921.38;6074086;29;20036;-91
2021/12/17 05:36:07;;;;;;;27.75;12.10;;;;;;;6.59;100.00;102916.47;6072866;29;20059;-90
2021/12/17 05:39:13;;;;;;;27.77;11.95;;;;;;;6.66;100.00;102913.72;6058195;29;20194;-91
2021/12/17 05:42:19;;;;;;;33.28;12.25;;;;;;;6.64;100.00;102922.38;6055718;29;20040;-91
2021/12/17 05:48:59;;;;;;;30.27;12.20;;;;;;;6.61;100.00;102925.00;6053832;29;20069;-90
2021/12/17 05:52:04;;;;;;;30.33;12.40;;;;;;;6.58;100.00;102915.59;6066557;29;20288;-90
2021/12/17 05:55:08;;;;;;;36.08;13.65;;;;;;;6.54;100.00;102915.75;6083726;29;20068;-90
2021/12/17 05:58:13;;;;;;;32.47;13.05;;;;;;;6.53;100.00;102916.59;6064571;29;20054;-90
2021/12/17 06:01:15;;;;;;;27.58;11.65;;;;;;;6.64;100.00;102922.38;6062596;29;20049;-90
2021/12/17 06:04:23;;;;;;;34.03;12.48;;;;;;;6.63;100.00;102918.94;6062457;29;20060;-90
2021/12/17 06:07:31;;;;;;;30.55;12.05;;;;;;;6.58;100.00;102925.91;6072242;29;20045;-90
2021/12/17 06:10:37;;;;;;;31.15;12.18;;;;;;;6.59;100.00;102925.03;6061309;29;20061;-90
2021/12/17 06:13:39;;;;;;;32.33;13.07;;;;;;;6.57;100.00;102919.06;6079997;29;20490;-91
2021/12/17 06:16:41;;;;;;;32.80;13.50;;;;;;;6.55;100.00;102909.69;6077811;29;20052;-90
2021/12/17 06:19:47;;;;;;;29.95;12.25;;;;;;;6.57;100.00;102908.78;6061460;29;20052;-90
2021/12/17 06:22:52;;;;;;;30.55;12.40;;;;;;;6.62;100.00;102903.53;6061662;29;20113;-90
2021/12/17 06:25:55;;;;;;;34.10;13.65;;;;;;;6.58;100.00;102907.06;6075412;29;20071;-91
2021/12/17 06:28:57;;;;;;;32.30;12.20;;;;;;;6.57;100.00;102907.94;6061654;29;20196;-90
2021/12/17 06:32:00;;;;;;;30.08;13.05;;;;;;;6.59;100.00;102911.34;6061762;29;20359;-90
2021/12/17 06:35:04;;;;;;;26.45;10.88;;;;;;;6.63;100.00;102923.22;6061538;29;20396;-90
2021/12/17 06:38:08;;;;;;;29.27;11.27;;;;;;;6.65;100.00;102919.72;6060514;29;20052;-90
2021/12/17 06:41:12;;;;;;;28.77;11.85;;;;;;;6.67;100.00;102928.25;6060394;29;20453;-90
2021/12/17 06:44:19;;;;;;;26.95;11.45;;;;;;;6.71;100.00;102933.34;6060360;29;20056;-90
2021/12/17 06:47:33;;;;;;;21.33;9.45;;;;;;;6.83;100.00;102931.34;6046094;29;20577;-91
2021/12/17 07:22:16;;;;;;;19.90;8.57;;;;;;;6.54;100.00;102926.03;6090496;29;19923;-90
2021/12/17 07:41:56;;;;;;;17.88;8.25;;;;;;;6.52;100.00;102932.94;6075012;29;20931;-90
2021/12/17 07:45:30;;;;;;;18.77;8.60;;;;;;;6.56;100.00;102937.13;6064021;29;20052;-90
2021/12/17 07:48:38;;;;;;;15.80;7.38;;;;;;;6.61;100.00;102935.31;6058313;29;20052;-91
2021/12/17 07:51:44;;;;;;;18.80;7.75;;;;;;;6.58;100.00;102925.91;6054669;29;20095;-90
2021/12/17 07:54:52;;;;;;;15.27;7.22;;;;;;;6.62;100.00;102930.09;6042514;29;20542;-90
2021/12/17 07:57:54;;;;;;;18.67;7.55;;;;;;;6.60;100.00;102933.59;6063549;29;20037;-90
2021/12/17 08:01:04;;;;;;;16.27;7.63;;;;;;;6.54;100.00;102923.47;6070816;29;20790;-90
2021/12/17 08:04:08;;;;;;;12.82;6.68;;;;;;;6.57;100.00;102921.66;6054003;29;20055;-90
2021/12/17 08:07:28;;;;;;;12.52;5.72;;;;;;;6.57;100.00;102924.22;6053374;29;20739;-90
2021/12/17 08:10:32;;;;;;;13.20;6.13;;;;;;;6.58;100.00;102923.31;6047306;29;20631;-90
2021/12/17 08:13:36;;;;;;;11.43;5.50;;;;;;;6.62;100.00;102931.84;6053827;29;20334;-90
2021/12/17 08:16:50;;;;;;;13.32;6.55;;;;;;;6.53;100.00;102932.88;6059762;29;20079;-90
2021/12/17 08:29:51;;;;;;;10.13;5.20;;;;;;;6.59;100.00;102950.78;6055959;29;20060;-91
2021/12/17 08:32:54;;;;;;;10.43;6.05;;;;;;;6.52;100.00;102944.06;6055503;29;20062;-90
2021/12/17 08:35:57;;;;;;;10.75;5.85;;;;;;;6.55;100.00;102946.56;6057687;29;20062;-90
2021/12/17 08:39:06;;;;;;;11.02;6.15;;;;;;;6.45;100.00;102952.81;6056694;29;20404;-90
2021/12/17 08:42:18;;;;;;;11.60;7.00;;;;;;;6.42;100.00;102958.03;6056440;29;20049;-90
2021/12/17 08:45:20;;;;;;;14.52;7.50;;;;;;;6.46;100.00;102950.22;6073426;29;20044;-90
2021/12/17 08:48:38;;;;;;;12.88;6.80;;;;;;;6.47;100.00;102951.06;6054212;29;20045;-90
2021/12/17 08:51:58;;;;;;;11.55;7.22;;;;;;;6.55;100.00;102962.00;6070315;29;20053;-90
2021/12/17 08:55:04;;;;;;;12.02;7.05;;;;;;;6.46;100.00;102962.22;6053250;29;20045;-90
2021/12/17 08:58:13;;;;;;;12.65;7.05;;;;;;;6.51;100.00;102965.53;6056482;29;20616;-90
2021/12/17 09:01:20;;;;;;;10.50;5.43;;;;;;;6.44;100.00;102974.28;6057026;29;20060;-90
2021/12/17 09:04:27;;;;;;;7.18;4.15;;;;;;;6.57;100.00;102980.00;6056169;29;20503;-90
2021/12/17 09:07:29;;;;;;;7.70;4.03;;;;;;;6.52;100.00;102971.53;6056704;29;20084;-90
2021/12/17 09:10:55;;;;;;;9.88;3.40;;;;;;;6.64;100.00;102969.53;6072785;29;20051;-90
2021/12/17 09:14:08;;;;;;;6.88;3.90;;;;;;;6.65;100.00;102972.94;6056857;29;20088;-90
2021/12/17 09:17:24;;;;;;;6.15;3.47;;;;;;;6.62;100.00;102971.28;6047587;29;20510;-91
2021/12/17 09:20:27;;;;;;;5.53;3.17;;;;;;;6.59;100.00;102978.25;6056496;29;20155;-91
2021/12/17 09:23:30;;;;;;;4.43;2.67;;;;;;;6.74;100.00;102977.03;6055978;29;20127;-91
2021/12/17 09:26:35;;;;;;;6.32;3.17;;;;;;;6.69;100.00;102993.44;6060362;29;20048;-90
2021/12/17 09:29:53;;;;;;;5.07;3.05;;;;;;;6.70;100.00;102978.81;6043665;29;20068;-90
2021/12/17 09:32:55;;;;;;;6.07;3.28;;;;;;;6.66;100.00;102979.78;6077737;29;20052;-90
2021/12/17 09:35:57;;;;;;;6.82;3.45;;;;;;;6.63;100.00;102990.13;6077377;29;20056;-90
2021/12/17 09:39:00;;;;;;;4.93;2.90;;;;;;;6.71;100.00;103003.69;6060831;29;20430;-90
2021/12/17 09:42:02;;;;;;;5.05;3.00;;;;;;;6.72;100.00;103000.22;6061117;29;20044;-90
2021/12/17 09:45:05;;;;;;;5.97;2.70;;;;;;;6.80;100.00;102998.31;6078515;29;20048;-91
2021/12/17 09:48:07;;;;;;;4.57;2.80;;;;;;;6.73;100.00;102990.78;6077680;29;20080;-90
2021/12/17 09:51:23;;;;;;;4.38;2.53;;;;;;;6.75;100.00;102981.28;6061759;29;20052;-89
2021/12/17 09:54:26;;;;;;;4.45;2.47;;;;;;;6.69;100.00;102985.69;6066832;29;20040;-89
2021/12/17 09:57:35;;;;;;;4.47;2.80;;;;;;;6.80;100.00;102987.19;6076569;29;20052;-90
2021/12/17 10:00:37;;;;;;;4.65;2.55;;;;;;;6.85;100.00;102993.06;6043567;29;20147;-90
2021/12/17 10:03:40;;;;;;;5.80;2.90;;;;;;;7.02;100.00;102997.81;6059110;29;20432;-91
2021/12/17 10:06:43;;;;;;;4.50;2.22;;;;;;;7.08;100.00;103003.69;6077059;29;20052;-90
2021/12/17 10:09:54;;;;;;;5.25;2.20;;;;;;;7.05;100.00;103000.31;6056465;29;20049;-90
2021/12/17 10:13:05;;;;;;;;;;;;;;;7.04;100.00;102999.47;6059044;29;20194;-90
2021/12/17 10:16:10;;;;;;;5.85;2.15;;;;;;;7.09;100.00;102999.38;6059721;29;20026;-90
2021/12/17 10:19:12;;;;;;;3.72;2.13;;;;;;;7.19;100.00;103010.28;6059663;29;20060;-90
2021/12/17 10:22:22;;;;;;;4.28;2.53;;;;;;;7.24;100.00;103004.13;6072544;29;20521;-91
2021/12/17 10:25:26;;;;;;;5.30;2.38;;;;;;;7.21;100.00;103011.09;6072507;29;20044;-91
2021/12/17 10:29:02;;;;;;;5.78;2.92;;;;;;;7.25;100.00;103017.84;6055492;29;20048;-90
2021/12/17 10:32:05;;;;;;;6.07;3.42;;;;;;;7.18;100.00;103012.03;6065556;29;20075;-91
2021/12/17 10:35:12;;;;;;;5.15;2.58;;;;;;;7.12;100.00;103015.56;6058196;29;20049;-90
2021/12/17 10:38:18;;;;;;;4.95;2.45;;;;;;;7.17;100.00;103007.75;6043663;29;20052;-90
2021/12/17 10:41:25;;;;;;;4.75;2.00;;;;;;;7.05;100.00;103014.03;6075627;29;20500;-90
2021/12/17 10:44:27;;;;;;;7.35;3.05;;;;;;;6.99;100.00;103013.34;6072575;29;20131;-90
2021/12/17 10:47:33;;;;;;;3.45;2.30;;;;;;;6.93;100.00;103008.31;6061900;29;20116;-90
2021/12/17 10:50:36;;;;;;;4.32;2.38;;;;;;;6.96;100.00;103013.44;6079237;29;20057;-90
2021/12/17 10:53:38;;;;;;;6.60;3.53;;;;;;;6.99;100.00;103008.19;6061695;29;20053;-90
2021/12/17 10:56:52;;;;;;;6.20;2.60;;;;;;;7.06;100.00;103012.31;6069576;29;20044;-90
2021/12/17 11:00:00;;;;;;;5.97;3.10;;;;;;;7.14;100.00;103018.13;6070474;29;20163;-90
2021/12/17 11:03:03;;;;;;;5.82;3.05;;;;;;;7.09;100.00;103014.81;6070048;29;20051;-90
2021/12/17 11:06:11;;;;;;;6.03;3.10;;;;;;;7.08;100.00;103013.09;6074258;29;20079;-90
2021/12/17 11:09:32;;;;;;;6.10;3.92;;;;;;;7.09;100.00;102999.38;6074966;29;20242;-90
2021/12/17 11:12:45;;;;;;;6.15;3.28;;;;;;;7.04;100.00;103004.63;6071103;29;20421;-90
2021/12/17 11:15:49;;;;;;;6.88;3.20;;;;;;;7.04;100.00;103006.34;6052532;29;20052;-90
2021/12/17 11:18:51;;;;;;;8.60;4.13;;;;;;;7.01;100.00;103002.13;6055858;29;20048;-90
2021/12/17 11:21:55;;;;;;;6.53;3.65;;;;;;;6.95;100.00;103002.25;6074986;29;20063;-90
2021/12/17 11:25:04;;;;;;;7.07;4.00;;;;;;;6.94;100.00;103004.88;6074510;29;20044;-90
2021/12/17 11:28:08;;;;;;;10.02;4.13;;;;;;;6.96;100.00;102998.81;6070788;29;20044;-90
2021/12/17 11:31:10;;;;;;;8.48;4.32;;;;;;;7.00;100.00;102997.84;6073911;29;20112;-91
2021/12/17 11:34:13;;;;;;;6.53;3.58;;;;;;;7.09;100.00;102992.47;6073799;29;20076;-90
2021/12/17 11:37:17;;;;;;;9.13;5.45;;;;;;;7.25;100.00;102992.09;6068237;29;20406;-90
2021/12/17 11:40:33;;;;;;;7.20;4.00;;;;;;;7.31;100.00;102987.63;6073240;29;20040;-90
2021/12/17 11:43:57;;;;;;;7.53;4.85;;;;;;;7.33;100.00;102979.88;6056867;29;20052;-90
2021/12/17 11:47:13;;;;;;;11.93;5.85;;;;;;;7.45;100.00;102991.56;6056520;29;20063;-90
2021/12/17 11:50:17;;;;;;;13.27;5.85;;;;;;;7.46;100.00;102993.28;6063701;29;20103;-90
2021/12/17 11:53:24;;;;;;;9.48;5.60;;;;;;;7.49;100.00;102983.72;6065365;29;20052;-90
2021/12/17 11:56:39;;;;;;;11.18;6.60;;;;;;;7.31;100.00;102986.78;6061971;29;20048;-90
2021/12/17 11:59:43;;;;;;;12.27;5.90;;;;;;;7.29;100.00;102998.88;6072427;29;20056;-90
2021/12/17 12:02:56;;;;;;;12.23;6.65;;;;;;;7.32;100.00;102996.22;6072316;29;20051;-91
2021/12/17 12:05:59;;;;;;;9.40;5.47;;;;;;;7.29;100.00;102994.56;6066284;29;20145;-90
2021/12/17 12:09:05;;;;;;;15.45;5.70;;;;;;;7.44;100.00;102992.47;6055482;29;20060;-90
2021/12/17 12:12:15;;;;;;;12.43;5.82;;;;;;;7.43;100.00;103001.06;6069067;29;20060;-90
2021/12/17 12:15:17;;;;;;;10.02;5.20;;;;;;;7.47;100.00;102994.97;6056927;29;20044;-90
2021/12/17 12:18:21;;;;;;;9.63;5.85;;;;;;;7.50;100.00;102995.75;6071996;29;20045;-90
2021/12/17 12:21:31;;;;;;;10.57;5.85;;;;;;;7.51;100.00;102992.28;6073093;29;20406;-90
2021/12/17 12:24:33;;;;;;;11.52;5.38;;;;;;;7.59;100.00;102998.97;6072938;29;20064;-90
2021/12/17 12:27:45;;;;;;;8.50;4.35;;;;;;;7.66;100.00;102992.75;6072491;29;20059;-91
2021/12/17 12:30:47;;;;;;;7.78;4.38;;;;;;;7.61;100.00;102985.16;6064443;29;20059;-90
2021/12/17 12:37:09;;;;;;;8.60;5.00;;;;;;;7.29;100.00;102980.84;6069306;29;20056;-90
2021/12/17 12:40:16;;;;;;;11.07;5.80;;;;;;;7.28;100.00;102985.16;6055310;29;20060;-90
2021/12/17 12:43:27;;;;;;;11.15;6.75;;;;;;;7.29;100.00;102975.69;6068550;29;20052;-90
2021/12/17 12:46:53;;;;;;;9.85;5.47;;;;;;;7.24;100.00;102973.22;6072599;29;20065;-90
2021/12/17 12:50:04;;;;;;;9.77;5.32;;;;;;;7.24;100.00;102969.81;6071767;29;20155;-90
2021/12/17 12:53:11;;;;;;;9.40;5.43;;;;;;;7.35;100.00;102967.78;6065788;29;20048;-90
2021/12/17 12:56:19;;;;;;;9.73;5.57;;;;;;;7.30;100.00;102964.47;6072040;29;20040;-90
2021/12/17 12:59:22;;;;;;;9.63;5.80;;;;;;;7.32;100.00;102958.41;6046082;29;20058;-90
2021/12/17 13:02:26;;;;;;;11.10;6.70;;;;;;;7.42;100.00;102955.59;6076591;29;20071;-90
2021/12/17 13:05:29;;;;;;;10.65;6.03;;;;;;;7.36;100.00;102966.06;6077505;29;20481;-93
2021/12/17 13:08:33;;;;;;;15.05;8.23;;;;;;;7.34;100.00;102964.38;6072533;29;20502;-93
2021/12/17 13:11:44;;;;;;;11.88;6.63;;;;;;;7.36;100.00;102968.66;6027563;29;20072;-93
2021/12/17 13:14:47;;;;;;;;;;;;;;;7.38;100.00;102964.28;6052936;29;20048;-93
2021/12/17 13:24:56;;;;;;;9.00;5.72;;;;;;;7.20;100.00;102958.72;6066762;29;20041;-90
2021/12/17 13:27:58;;;;;;;9.73;5.68;;;;;;;7.30;100.00;102956.75;6051233;29;20052;-90
2021/12/17 13:31:00;;;;;;;12.38;6.63;;;;;;;7.29;100.00;102953.34;6067831;29;20807;-90
2021/12/17 13:34:34;;;;;;;11.32;6.00;;;;;;;7.18;100.00;102957.06;6064606;29;20139;-90
2021/12/17 13:37:38;;;;;;;12.00;5.90;;;;;;;7.22;100.00;102949.22;6061292;29;20067;-90
2021/12/17 13:40:40;;;;;;;12.88;6.32;;;;;;;7.24;100.00;102959.50;6069643;29;20045;-90
2021/12/17 13:43:42;;;;;;;9.70;5.95;;;;;;;7.30;100.00;102961.91;6057396;29;20055;-90
2021/12/17 13:46:44;;;;;;;9.93;5.78;;;;;;;7.36;100.00;102960.91;6067400;29;20041;-90
2021/12/17 13:49:59;;;;;;;13.85;5.88;;;;;;;7.41;100.00;102959.91;6061866;29;20052;-90
2021/12/17 13:53:15;;;;;;;8.80;5.67;;;;;;;7.30;100.00;102959.31;6062998;29;20117;-90
2021/12/17 13:56:38;;;;;;;9.18;5.68;;;;;;;7.32;100.00;102939.53;6060106;29;20393;-90
2021/12/17 13:59:41;;;;;;;10.32;6.10;;;;;;;7.33;100.00;102939.50;6067193;29;20056;-90
2021/12/17 14:02:45;;;;;;;10.02;5.78;;;;;;;7.20;100.00;102950.16;6065937;29;20052;-90
2021/12/17 14:05:51;;;;;;;13.63;7.38;;;;;;;7.18;100.00;102955.34;6064125;29;20045;-90
2021/12/17 14:08:53;;;;;;;10.63;6.53;;;;;;;7.16;100.00;102951.13;6056776;29;20041;-90
2021/12/17 14:11:58;;;;;;;12.23;6.60;;;;;;;7.12;100.00;102961.50;6064603;29;20048;-91
2021/12/17 14:15:24;;;;;;;13.77;6.72;;;;;;;7.12;100.00;102952.91;6068784;29;20044;-91
2021/12/17 14:18:27;;;;;;;12.10;6.88;;;;;;;7.15;100.00;102952.84;6067058;29;20123;-91
2021/12/17 14:21:33;;;;;;;11.98;6.78;;;;;;;7.16;100.00;102948.56;6066038;29;20041;-91
2021/12/17 14:24:35;;;;;;;11.02;5.63;;;;;;;7.11;100.00;102933.22;6044273;29;20043;-91
2021/12/17 14:27:57;;;;;;;9.82;5.53;;;;;;;7.07;100.00;102949.63;6060257;29;20295;-91
2021/12/17 14:31:12;;;;;;;10.88;6.47;;;;;;;7.00;100.00;102953.22;6059058;29;20095;-91
2021/12/17 14:34:16;;;;;;;13.82;7.70;;;;;;;7.00;100.00;102954.06;6057381;29;20044;-90
2021/12/17 14:37:18;;;;;;;13.45;8.48;;;;;;;6.90;100.00;102955.19;6063890;29;20517;-91
2021/12/17 14:40:42;;;;;;;14.57;8.23;;;;;;;6.82;100.00;102949.38;6061636;29;20080;-91
2021/12/17 14:43:59;;;;;;;15.07;8.02;;;;;;;6.81;100.00;102955.44;6058327;29;20052;-90
2021/12/17 14:47:29;;;;;;;14.68;8.10;;;;;;;6.85;100.00;102968.16;6061543;29;20058;-90
2021/12/17 15:04:01;;;;;;;18.38;9.52;;;;;;;6.79;100.00;102988.06;6068682;29;20045;-90
2021/12/17 15:07:04;;;;;;;17.27;9.05;;;;;;;6.83;100.00;102982.81;6057908;29;20577;-90
2021/12/17 15:10:10;;;;;;;18.67;9.65;;;;;;;6.76;100.00;102986.41;6064031;29;20044;-90
2021/12/17 15:13:12;;;;;;;18.48;10.48;;;;;;;6.76;100.00;102970.09;6074136;29;20056;-90
2021/12/17 15:16:15;;;;;;;19.73;10.05;;;;;;;6.64;100.00;102966.09;6066335;29;20046;-90
2021/12/17 15:19:17;;;;;;;19.80;9.98;;;;;;;6.68;100.00;102957.41;6060503;29;20479;-90
2021/12/17 15:22:20;;;;;;;18.17;9.95;;;;;;;6.58;100.00;102949.06;6063594;29;20565;-90
2021/12/17 15:25:23;;;;;;;22.95;10.63;;;;;;;6.58;100.00;102953.38;6050484;29;20068;-90
2021/12/17 15:28:27;;;;;;;19.02;10.40;;;;;;;6.57;100.00;102943.97;6072856;29;20051;-90
2021/12/17 15:31:29;;;;;;;20.17;10.77;;;;;;;6.51;100.00;102946.66;6072792;29;20131;-90
2021/12/17 15:34:31;;;;;;;21.83;10.95;;;;;;;6.65;100.00;102942.91;6047686;29;20668;-90
2021/12/17 15:37:34;;;;;;;19.40;10.70;;;;;;;6.53;100.00;102932.88;6061793;29;20053;-90
2021/12/17 15:40:42;;;;;;;22.88;10.80;;;;;;;6.55;100.00;102928.56;6069509;29;20049;-90
2021/12/17 15:43:45;;;;;;;17.40;10.20;;;;;;;6.63;100.00;102936.97;6057879;29;20056;-90
2021/12/17 15:46:49;;;;;;;23.98;11.40;;;;;;;6.58;100.00;102936.19;6058970;29;20090;-90
2021/12/17 15:49:51;;;;;;;20.88;11.25;;;;;;;6.64;100.00;102943.78;6065382;29;20059;-90
2021/12/17 15:52:53;;;;;;;18.45;10.85;;;;;;;6.62;100.00;102948.13;6045632;29;20052;-90
2021/12/17 15:55:55;;;;;;;20.40;10.90;;;;;;;6.58;100.00;102946.47;6057027;29;20052;-90
2021/12/17 15:58:59;;;;;;;18.73;10.63;;;;;;;6.40;100.00;102950.34;6062169;29;20049;-90
2021/12/17 16:02:02;;;;;;;26.08;12.45;;;;;;;6.45;100.00;102955.38;6039326;29;20051;-90
2021/12/17 16:05:07;;;;;;;20.80;11.45;;;;;;;6.59;100.00;102952.50;6051112;29;20192;-90
2021/12/17 16:08:10;;;;;;;20.52;10.75;;;;;;;6.52;100.00;102963.81;6072008;29;20052;-90
2021/12/17 16:18:16;;;;;;;17.73;10.73;;;;;;;6.74;100.00;102984.75;6066831;29;20123;-90
2021/12/17 16:21:18;;;;;;;21.40;10.90;;;;;;;6.71;100.00;102977.97;6066572;29;20056;-90
2021/12/17 16:24:21;;;;;;;23.88;11.18;;;;;;;6.63;100.00;102982.41;6062069;29;20044;-90
2021/12/17 16:27:23;;;;;;;24.88;11.40;;;;;;;6.64;100.00;102974.66;6061958;29;20501;-90
2021/12/17 16:30:25;;;;;;;20.30;10.07;;;;;;;6.51;100.00;102970.69;6066216;29;20040;-90
2021/12/17 16:33:27;;;;;;;18.75;9.93;;;;;;;6.49;100.00;102967.31;6062358;29;20177;-90
2021/12/17 16:36:32;;;;;;;19.23;9.85;;;;;;;6.57;100.00;102967.13;6050466;29;20044;-91
2021/12/17 16:39:34;;;;;;;14.30;8.10;;;;;;;6.49;100.00;102976.75;6070390;29;20049;-90
2021/12/17 16:42:37;;;;;;;14.18;7.93;;;;;;;6.43;100.00;102973.44;6067233;29;20682;-90
2021/12/17 16:45:42;;;;;;;14.73;8.43;;;;;;;6.37;100.00;102977.88;6055351;29;20139;-90
2021/12/17 16:48:47;;;;;;;12.25;7.50;;;;;;;6.47;100.00;102977.63;6072710;29;20502;-90
2021/12/17 16:51:50;;;;;;;12.48;7.05;;;;;;;6.53;100.00;102966.34;6046088;29;20056;-90
2021/12/17 16:54:57;;;;;;;15.40;7.75;;;;;;;6.37;100.00;102965.84;6072209;29;20141;-90
2021/12/17 16:57:59;;;;;;;15.32;9.35;;;;;;;6.40;100.00;102963.19;6071965;29;20057;-90
2021/12/17 17:01:04;;;;;;;15.75;8.90;;;;;;;6.41;100.00;102970.06;6065036;29;20172;-90
2021/12/17 17:04:08;;;;;;;18.00;8.60;;;;;;;6.35;100.00;102969.31;6068129;29;20049;-90
2021/12/17 17:07:12;;;;;;;19.38;8.55;;;;;;;6.41;100.00;102969.19;6065704;29;20052;-89
2021/12/17 17:10:14;;;;;;;17.90;8.45;;;;;;;6.30;100.00;102961.72;6057818;29;20623;-90
2021/12/17 17:13:17;;;;;;;16.20;8.48;;;;;;;6.23;100.00;102960.97;6067012;29;20052;-90
2021/12/17 17:16:19;;;;;;;18.48;9.65;;;;;;;6.20;100.00;102965.34;6072369;29;20052;-90
2021/12/17 17:19:21;;;;;;;17.52;9.45;;;;;;;6.20;100.00;102971.34;6054805;29;20052;-90
2021/12/17 17:22:24;;;;;;;22.10;10.63;;;;;;;6.18;100.00;102967.94;6072237;29;20436;-90
2021/12/17 17:25:26;;;;;;;19.95;10.68;;;;;;;6.20;100.00;102970.50;6071970;29;20601;-90
2021/12/17 17:28:28;;;;;;;21.98;10.48;;;;;;;6.17;100.00;102970.56;6071812;29;20048;-90
2021/12/17 17:31:31;;;;;;;20.80;11.10;;;;;;;6.34;100.00;102986.50;6071459;29;20399;-90
2021/12/17 17:34:33;;;;;;;17.58;9.68;;;;;;;6.49;100.00;102967.31;6063171;29;20048;-90
2021/12/17 17:37:35;;;;;;;21.48;10.40;;;;;;;6.35;100.00;102959.88;6060854;29;20559;-90
2021/12/17 17:40:38;;;;;;;18.33;9.98;;;;;;;6.40;100.00;102963.19;6063348;29;20116;-90
2021/12/17 17:43:39;;;;;;;18.35;9.20;;;;;;;6.27;100.00;102959.22;6054184;29;20498;-90
2021/12/17 17:46:43;;;;;;;19.10;9.50;;;;;;;6.22;100.00;102968.75;6065683;29;20125;-90
2021/12/17 17:49:46;;;;;;;17.65;9.52;;;;;;;6.17;100.00;102975.72;6062467;29;20053;-90
2021/12/17 17:52:48;;;;;;;18.40;9.15;;;;;;;6.12;100.00;102962.13;6067621;29;20052;-90